createdAt,value
2023-05-19T00:02:10.190Z,99.80
2023-05-19T00:04:37.934Z,99.90
2023-05-19T00:07:05.789Z,99.90
2023-05-19T00:09:33.290Z,99.90
2023-05-19T00:12:00.871Z,99.90
2023-05-19T00:14:29.369Z,99.90
2023-05-19T00:16:58.202Z,99.90
2023-05-19T00:19:32.636Z,99.90
2023-05-19T00:21:59.968Z,99.90
2023-05-19T00:24:27.242Z,99.90
2023-05-19T00:26:54.602Z,99.90
2023-05-19T00:29:21.776Z,99.90
2023-05-19T00:31:49.627Z,99.90
2023-05-19T00:34:16.775Z,99.90
2023-05-19T00:36:44.082Z,99.90
2023-05-19T00:39:11.225Z,99.90
2023-05-19T00:41:38.469Z,99.90
2023-05-19T00:44:06.963Z,99.90
2023-05-19T00:46:34.453Z,99.90
2023-05-19T00:49:01.660Z,99.90
2023-05-19T00:51:29.967Z,99.90
2023-05-19T00:53:57.650Z,99.90
2023-05-19T00:56:25.088Z,99.90
2023-05-19T00:58:52.510Z,99.90
2023-05-19T01:01:21.942Z,99.90
2023-05-19T01:03:49.972Z,99.90
2023-05-19T01:06:19.516Z,99.90
2023-05-19T01:08:46.939Z,99.90
2023-05-19T01:11:14.262Z,99.90
2023-05-19T01:13:42.294Z,99.90
2023-05-19T01:16:40.361Z,99.90
2023-05-19T01:19:51.327Z,99.90
2023-05-19T01:22:49.152Z,99.90
2023-05-19T01:25:25.455Z,99.90
2023-05-19T01:28:09.710Z,99.90
2023-05-19T01:30:44.979Z,99.90
2023-05-19T01:33:14.943Z,99.90
2023-05-19T01:35:44.134Z,99.90
2023-05-19T01:38:13.027Z,99.90
2023-05-19T01:40:42.334Z,99.90
2023-05-19T01:43:15.146Z,99.90
2023-05-19T01:45:43.146Z,99.90
2023-05-19T01:48:11.193Z,99.90
2023-05-19T01:50:39.232Z,99.90
2023-05-19T01:53:06.934Z,99.90
2023-05-19T01:55:43.219Z,99.90
2023-05-19T01:58:32.991Z,99.90
2023-05-19T02:01:04.485Z,99.90
2023-05-19T02:03:43.680Z,99.90
2023-05-19T02:06:28.063Z,99.90
2023-05-19T02:09:22.428Z,99.90
2023-05-19T02:12:03.241Z,99.90
2023-05-19T02:14:42.302Z,99.90
2023-05-19T02:17:10.749Z,99.90
2023-05-19T02:19:40.565Z,99.90
2023-05-19T02:22:07.859Z,99.90
2023-05-19T02:24:35.349Z,99.90
2023-05-19T02:27:03.066Z,99.90
2023-05-19T02:29:30.184Z,99.90
2023-05-19T02:31:57.611Z,99.90
2023-05-19T02:34:24.936Z,99.90
2023-05-19T02:36:52.501Z,99.90
2023-05-19T02:39:20.062Z,99.90
2023-05-19T02:41:47.255Z,99.90
2023-05-19T02:44:14.389Z,99.90
2023-05-19T02:46:41.928Z,99.90
2023-05-19T02:49:09.890Z,99.90
2023-05-19T02:51:37.182Z,99.90
2023-05-19T02:54:04.464Z,99.90
2023-05-19T02:56:31.650Z,99.90
2023-05-19T02:58:58.781Z,99.90
2023-05-19T03:01:25.976Z,99.90
2023-05-19T03:03:53.249Z,99.90
2023-05-19T03:06:23.890Z,99.90
2023-05-19T03:08:51.205Z,99.90
2023-05-19T03:11:18.550Z,99.90
2023-05-19T03:13:45.843Z,99.90
2023-05-19T03:16:14.337Z,99.90
2023-05-19T03:18:42.162Z,99.90
2023-05-19T03:21:09.526Z,99.90
2023-05-19T03:23:37.059Z,99.90
2023-05-19T03:26:04.569Z,99.90
2023-05-19T03:28:35.226Z,99.90
2023-05-19T03:31:02.376Z,99.90
2023-05-19T03:33:30.215Z,99.90
2023-05-19T03:35:58.060Z,99.90
2023-05-19T03:38:25.493Z,99.90
2023-05-19T03:40:54.050Z,99.90
2023-05-19T03:43:21.450Z,99.90
2023-05-19T03:45:48.842Z,99.90
2023-05-19T03:48:17.115Z,99.90
2023-05-19T03:50:45.589Z,99.90
2023-05-19T03:53:12.760Z,99.90
2023-05-19T03:55:40.091Z,99.90
2023-05-19T03:58:07.589Z,99.90
2023-05-19T04:00:35.055Z,99.90
2023-05-19T04:03:03.005Z,99.90
2023-05-19T04:05:30.328Z,99.90
2023-05-19T04:07:57.651Z,99.90
2023-05-19T04:10:25.795Z,99.90
2023-05-19T04:12:53.057Z,99.90
2023-05-19T04:15:20.344Z,99.90
2023-05-19T04:17:47.629Z,99.90
2023-05-19T04:20:14.921Z,99.90
2023-05-19T04:22:42.475Z,99.90
2023-05-19T04:25:09.808Z,99.90
2023-05-19T04:27:39.484Z,99.90
2023-05-19T04:30:07.291Z,99.90
2023-05-19T04:32:34.862Z,99.90
2023-05-19T04:35:03.495Z,99.90
2023-05-19T04:37:30.618Z,99.90
2023-05-19T04:39:57.883Z,99.90
2023-05-19T04:42:26.411Z,99.90
2023-05-19T04:44:53.838Z,99.90
2023-05-19T04:47:21.888Z,99.90
2023-05-19T04:49:49.354Z,99.90
2023-05-19T04:52:22.089Z,99.90
2023-05-19T04:54:49.339Z,99.90
2023-05-19T04:57:17.133Z,99.90
2023-05-19T04:59:44.796Z,99.90
2023-05-19T05:02:12.384Z,99.90
2023-05-19T05:04:42.821Z,99.90
2023-05-19T05:07:10.625Z,99.90
2023-05-19T05:09:38.398Z,99.90
2023-05-19T05:12:08.234Z,99.90
2023-05-19T05:14:35.926Z,99.90
2023-05-19T05:17:03.410Z,99.90
2023-05-19T05:19:31.142Z,99.90
2023-05-19T05:21:58.946Z,99.90
2023-05-19T05:24:26.693Z,99.90
2023-05-19T05:26:54.583Z,99.90
2023-05-19T05:29:21.788Z,99.90
2023-05-19T05:31:48.988Z,99.90
2023-05-19T05:34:16.373Z,99.90
2023-05-19T05:36:43.671Z,99.90
2023-05-19T05:39:11.058Z,99.90
2023-05-19T05:41:38.442Z,99.90
2023-05-19T05:44:06.127Z,99.90
2023-05-19T05:46:33.496Z,99.90
2023-05-19T05:49:01.461Z,99.90
2023-05-19T05:51:29.196Z,99.90
2023-05-19T05:53:57.777Z,99.90
2023-05-19T05:56:25.541Z,99.90
2023-05-19T05:58:52.874Z,99.90
2023-05-19T06:01:21.198Z,99.90
2023-05-19T06:03:48.324Z,99.90
2023-05-19T06:06:15.615Z,99.90
2023-05-19T06:08:42.900Z,99.90
2023-05-19T06:11:10.249Z,99.90
2023-05-19T06:13:37.911Z,99.90
2023-05-19T06:16:05.977Z,99.90
2023-05-19T06:18:33.167Z,99.90
2023-05-19T06:21:00.364Z,99.90
2023-05-19T06:23:29.382Z,99.90
2023-05-19T06:25:57.088Z,99.90
2023-05-19T06:28:24.207Z,99.90
2023-05-19T06:30:51.521Z,99.90
2023-05-19T06:33:18.732Z,99.90
2023-05-19T06:35:45.829Z,99.90
2023-05-19T06:38:12.902Z,99.90
2023-05-19T06:40:40.663Z,99.90
2023-05-19T06:43:08.126Z,99.90
2023-05-19T06:45:35.735Z,99.90
2023-05-19T06:48:03.417Z,99.90
2023-05-19T06:50:30.863Z,99.90
2023-05-19T06:52:58.798Z,99.90
2023-05-19T06:55:26.688Z,99.90
2023-05-19T06:57:53.971Z,99.90
2023-05-19T07:00:31.161Z,99.90
2023-05-19T07:02:58.500Z,99.90
2023-05-19T07:05:25.979Z,99.90
2023-05-19T07:07:53.318Z,99.90
2023-05-19T07:10:22.079Z,99.90
2023-05-19T07:12:49.425Z,99.90
2023-05-19T07:15:16.572Z,99.90
2023-05-19T07:17:43.748Z,99.90
2023-05-19T07:20:11.807Z,99.90
2023-05-19T07:22:40.280Z,99.90
2023-05-19T07:25:08.470Z,99.90
2023-05-19T07:27:36.060Z,99.90
2023-05-19T07:30:04.292Z,99.90
2023-05-19T07:32:31.720Z,99.90
2023-05-19T07:34:59.357Z,99.90
2023-05-19T07:37:26.583Z,99.90
2023-05-19T07:39:53.800Z,99.90
2023-05-19T07:42:21.290Z,99.90
2023-05-19T07:44:48.526Z,99.90
2023-05-19T07:47:15.965Z,99.90
2023-05-19T07:49:43.360Z,99.90
2023-05-19T07:52:10.396Z,99.90
2023-05-19T07:54:37.630Z,99.90
2023-05-19T07:57:04.923Z,99.90
2023-05-19T07:59:32.274Z,99.90
2023-05-19T08:01:59.604Z,99.90
2023-05-19T08:04:26.874Z,99.90
2023-05-19T08:06:55.250Z,99.90
2023-05-19T08:09:22.608Z,99.90
2023-05-19T08:11:50.234Z,99.90
2023-05-19T08:14:17.724Z,99.90
2023-05-19T08:16:46.390Z,99.90
2023-05-19T08:19:13.518Z,99.90
2023-05-19T08:21:42.465Z,99.90
2023-05-19T08:24:09.887Z,99.90
2023-05-19T08:26:37.936Z,99.90
2023-05-19T08:29:06.225Z,99.90
2023-05-19T08:31:33.568Z,99.90
2023-05-19T08:34:00.903Z,99.90
2023-05-19T08:36:29.066Z,99.90
2023-05-19T08:38:56.341Z,99.90
2023-05-19T08:41:23.569Z,99.90
2023-05-19T08:43:51.089Z,99.90
2023-05-19T08:46:18.728Z,99.90
2023-05-19T08:48:48.953Z,99.90
2023-05-19T08:51:19.137Z,99.90
2023-05-19T08:53:51.107Z,99.90
2023-05-19T08:56:22.048Z,99.90
2023-05-19T08:58:51.289Z,99.90
2023-05-19T09:01:19.906Z,99.90
2023-05-19T09:03:50.393Z,99.90
2023-05-19T09:06:18.039Z,99.90
2023-05-19T09:08:45.492Z,99.90
2023-05-19T09:11:13.448Z,99.90
2023-05-19T09:13:41.233Z,99.90
2023-05-19T09:16:08.640Z,99.60
2023-05-19T09:18:41.000Z,99.10
2023-05-19T09:21:10.620Z,99.00
2023-05-19T09:23:37.926Z,99.10
2023-05-19T09:26:08.677Z,98.70
2023-05-19T09:28:37.197Z,98.40
2023-05-19T09:31:09.345Z,97.70
2023-05-19T09:33:38.616Z,97.50
2023-05-19T09:36:08.710Z,97.40
2023-05-19T09:38:37.361Z,96.90
2023-05-19T09:41:06.147Z,96.30
2023-05-19T09:43:35.719Z,95.90
2023-05-19T09:46:07.891Z,96.00
2023-05-19T09:48:36.826Z,95.40
2023-05-19T09:51:06.632Z,94.80
2023-05-19T09:53:35.393Z,94.40
2023-05-19T09:56:04.413Z,94.00
2023-05-19T09:58:35.020Z,93.80
2023-05-19T10:01:03.910Z,93.40
2023-05-19T10:03:33.224Z,92.80
2023-05-19T10:06:02.401Z,92.60
2023-05-19T10:08:31.076Z,92.40
2023-05-19T10:10:58.562Z,92.60
2023-05-19T10:13:27.199Z,92.60
2023-05-19T10:15:58.870Z,92.60
2023-05-19T10:18:28.132Z,92.00
2023-05-19T10:20:58.370Z,91.50
2023-05-19T10:23:26.458Z,90.90
2023-05-19T10:25:57.025Z,91.20
2023-05-19T10:28:28.417Z,90.90
2023-05-19T10:31:00.808Z,90.50
2023-05-19T10:34:05.606Z,90.00
2023-05-19T10:37:05.052Z,89.60
2023-05-19T10:39:36.558Z,89.30
2023-05-19T10:42:28.206Z,88.80
2023-05-19T10:45:04.136Z,87.70
2023-05-19T10:47:32.699Z,87.20
2023-05-19T10:50:01.703Z,87.20
2023-05-19T10:52:31.444Z,87.20
2023-05-19T10:54:59.040Z,87.00
2023-05-19T10:57:32.469Z,86.50
2023-05-19T11:00:06.767Z,86.40
2023-05-19T11:02:42.431Z,85.60
2023-05-19T11:05:11.386Z,86.00
2023-05-19T11:07:43.036Z,86.40
2023-05-19T11:10:10.756Z,86.90
2023-05-19T11:12:46.101Z,85.90
2023-05-19T11:15:16.910Z,84.30
2023-05-19T11:17:48.816Z,85.00
2023-05-19T11:20:29.893Z,84.70
2023-05-19T11:23:07.291Z,84.00
2023-05-19T11:25:51.827Z,83.60
2023-05-19T11:28:21.131Z,81.50
2023-05-19T11:30:52.460Z,80.00
2023-05-19T11:33:21.193Z,79.30
2023-05-19T11:35:50.639Z,78.30
2023-05-19T11:38:19.928Z,78.20
2023-05-19T11:40:49.971Z,79.40
2023-05-19T11:43:17.216Z,79.50
2023-05-19T11:45:45.023Z,79.00
2023-05-19T11:48:13.155Z,78.40
2023-05-19T11:50:47.182Z,78.50
2023-05-19T11:53:15.295Z,77.10
2023-05-19T11:55:45.174Z,76.90
2023-05-19T11:58:13.034Z,76.60
2023-05-19T12:00:42.401Z,76.50
2023-05-19T12:03:10.352Z,76.70
2023-05-19T12:05:43.108Z,76.70
2023-05-19T12:08:12.188Z,76.50
2023-05-19T12:10:40.306Z,76.60
2023-05-19T12:13:10.925Z,77.20
2023-05-19T12:15:39.397Z,77.40
2023-05-19T12:18:07.763Z,77.50
2023-05-19T12:20:36.435Z,77.00
2023-05-19T12:23:04.883Z,77.00
2023-05-19T12:25:32.941Z,77.60
2023-05-19T12:28:03.548Z,77.80
2023-05-19T12:30:35.654Z,78.20
2023-05-19T12:33:03.805Z,78.40
2023-05-19T12:35:35.240Z,78.70
2023-05-19T12:38:06.851Z,79.10
2023-05-19T12:40:38.385Z,79.20
2023-05-19T12:43:07.081Z,79.40
2023-05-19T12:45:37.574Z,79.50
2023-05-19T12:48:13.142Z,79.90
2023-05-19T12:50:40.948Z,80.60
2023-05-19T12:53:15.498Z,80.60
2023-05-19T12:55:44.518Z,81.70
2023-05-19T12:58:16.207Z,83.20
2023-05-19T13:00:45.696Z,85.00
2023-05-19T13:03:20.196Z,86.40
2023-05-19T13:05:50.000Z,87.30
2023-05-19T13:08:19.254Z,87.90
2023-05-19T13:10:47.764Z,88.90
2023-05-19T13:13:15.604Z,89.80
2023-05-19T13:15:45.132Z,89.60
2023-05-19T13:18:13.919Z,89.70
2023-05-19T13:20:42.793Z,89.60
2023-05-19T13:23:14.544Z,89.30
2023-05-19T13:25:42.416Z,89.50
2023-05-19T13:28:10.206Z,89.60
2023-05-19T13:30:39.911Z,90.20
2023-05-19T13:33:07.561Z,90.00
2023-05-19T13:35:37.993Z,90.40
2023-05-19T13:38:11.612Z,90.70
2023-05-19T13:40:40.118Z,91.10
2023-05-19T13:43:08.929Z,91.50
2023-05-19T13:45:36.408Z,91.80
2023-05-19T13:48:04.043Z,91.90
2023-05-19T13:50:31.546Z,91.80
2023-05-19T13:52:59.092Z,91.80
2023-05-19T13:55:27.958Z,91.80
2023-05-19T13:57:56.984Z,91.40
2023-05-19T14:00:24.436Z,91.10
2023-05-19T14:02:51.638Z,91.10
2023-05-19T14:05:19.083Z,91.20
2023-05-19T14:07:46.988Z,91.30
2023-05-19T14:10:14.819Z,91.50
2023-05-19T14:13:07.928Z,91.80
2023-05-19T14:15:29.653Z,92.00
2023-05-19T14:17:57.181Z,92.00
2023-05-19T14:20:24.369Z,92.00
2023-05-19T14:22:51.486Z,92.20
2023-05-19T14:25:19.029Z,92.40
2023-05-19T14:27:46.188Z,92.90
2023-05-19T14:30:13.773Z,93.10
2023-05-19T14:32:41.140Z,93.00
2023-05-19T14:35:08.482Z,92.70
2023-05-19T14:37:35.663Z,92.30
2023-05-19T14:40:04.641Z,91.50
2023-05-19T14:42:31.874Z,91.10
2023-05-19T14:44:59.146Z,91.00
2023-05-19T14:47:27.282Z,91.00
2023-05-19T14:49:55.043Z,91.00
2023-05-19T14:52:23.051Z,91.00
2023-05-19T14:54:50.354Z,91.10
2023-05-19T14:57:17.537Z,91.40
2023-05-19T14:59:44.809Z,91.70
2023-05-19T15:02:12.987Z,91.80
2023-05-19T15:04:40.466Z,91.80
2023-05-19T15:07:11.263Z,91.50
2023-05-19T15:09:38.959Z,91.10
2023-05-19T15:12:06.580Z,90.90
2023-05-19T15:14:33.919Z,91.20
2023-05-19T15:17:01.153Z,91.20
2023-05-19T15:19:28.661Z,91.40
2023-05-19T15:21:55.910Z,91.60
2023-05-19T15:24:23.302Z,91.50
2023-05-19T15:26:50.801Z,91.60
2023-05-19T15:29:18.428Z,91.50
2023-05-19T15:31:46.027Z,91.50
2023-05-19T15:34:13.485Z,91.50
2023-05-19T15:36:40.880Z,91.50
2023-05-19T15:39:08.262Z,91.70
2023-05-19T15:41:35.532Z,91.90
2023-05-19T15:44:03.077Z,92.00
2023-05-19T15:46:31.122Z,92.20
2023-05-19T15:48:58.711Z,92.50
2023-05-19T15:51:26.816Z,92.70
2023-05-19T15:53:54.512Z,93.00
2023-05-19T15:56:22.134Z,93.10
2023-05-19T15:58:49.301Z,93.30
2023-05-19T16:01:16.962Z,93.40
2023-05-19T16:03:45.546Z,93.70
2023-05-19T16:06:13.253Z,93.90
2023-05-19T16:08:40.530Z,94.10
2023-05-19T16:11:07.602Z,94.30
2023-05-19T16:13:34.948Z,94.50
2023-05-19T16:16:02.375Z,94.60
2023-05-19T16:18:29.912Z,94.80
2023-05-19T16:20:57.110Z,94.90
2023-05-19T16:23:25.266Z,95.10
2023-05-19T16:25:53.192Z,95.30
2023-05-19T16:28:22.471Z,95.60
2023-05-19T16:30:51.038Z,95.80
2023-05-19T16:33:18.339Z,95.90
2023-05-19T16:35:45.895Z,95.90
2023-05-19T16:38:13.199Z,96.10
2023-05-19T16:40:40.275Z,96.20
2023-05-19T16:43:07.484Z,96.30
2023-05-19T16:45:34.717Z,96.50
2023-05-19T16:48:02.565Z,96.60
2023-05-19T16:50:29.944Z,96.70
2023-05-19T16:52:57.184Z,96.70
2023-05-19T16:55:25.685Z,96.80
2023-05-19T16:57:52.926Z,96.80
2023-05-19T17:00:20.574Z,96.70
2023-05-19T17:02:47.948Z,96.70
2023-05-19T17:05:15.242Z,96.50
2023-05-19T17:07:42.467Z,96.40
2023-05-19T17:10:10.210Z,96.40
2023-05-19T17:12:37.652Z,96.50
2023-05-19T17:15:05.212Z,96.80
2023-05-19T17:17:32.355Z,96.60
2023-05-19T17:20:00.127Z,96.60
2023-05-19T17:22:28.803Z,96.70
2023-05-19T17:24:57.828Z,96.80
2023-05-19T17:27:25.100Z,97.00
2023-05-19T17:29:52.302Z,97.10
2023-05-19T17:32:22.369Z,97.30
2023-05-19T17:34:49.599Z,97.50
2023-05-19T17:37:19.371Z,97.60
2023-05-19T17:39:46.891Z,97.60
2023-05-19T17:42:17.083Z,97.70
2023-05-19T17:44:44.231Z,97.70
2023-05-19T17:47:11.500Z,97.80
2023-05-19T17:49:40.441Z,97.80
2023-05-19T17:52:08.255Z,97.80
2023-05-19T17:54:36.215Z,97.80
2023-05-19T17:57:06.776Z,97.80
2023-05-19T17:59:34.464Z,97.90
2023-05-19T18:02:02.040Z,97.90
2023-05-19T18:04:29.838Z,97.80
2023-05-19T18:06:58.878Z,97.70
2023-05-19T18:09:29.003Z,97.70
2023-05-19T18:11:57.349Z,97.80
2023-05-19T18:14:24.696Z,97.80
2023-05-19T18:16:52.545Z,97.80
2023-05-19T18:19:20.392Z,97.70
2023-05-19T18:21:47.554Z,97.70
2023-05-19T18:24:14.997Z,97.70
2023-05-19T18:26:42.346Z,97.80
2023-05-19T18:29:11.339Z,97.80
2023-05-19T18:31:38.689Z,97.90
2023-05-19T18:34:05.987Z,97.90
2023-05-19T18:36:35.167Z,98.00
2023-05-19T18:39:02.713Z,98.00
2023-05-19T18:41:29.831Z,98.20
2023-05-19T18:43:57.223Z,98.30
2023-05-19T18:46:24.536Z,98.40
2023-05-19T18:48:51.772Z,98.50
2023-05-19T18:51:20.199Z,98.70
2023-05-19T18:53:50.358Z,98.80
2023-05-19T18:56:27.115Z,98.90
2023-05-19T18:58:58.663Z,99.00
2023-05-19T19:01:29.050Z,99.10
2023-05-19T19:03:56.135Z,99.20
2023-05-19T19:06:24.002Z,99.30
2023-05-19T19:08:51.543Z,99.40
2023-05-19T19:11:18.819Z,99.50
2023-05-19T19:13:46.449Z,99.70
2023-05-19T19:16:14.035Z,99.70
2023-05-19T19:18:41.282Z,99.80
2023-05-19T19:21:08.656Z,99.80
2023-05-19T19:23:36.102Z,99.90
2023-05-19T19:26:03.624Z,99.80
2023-05-19T19:28:30.928Z,99.70
2023-05-19T19:30:58.396Z,99.40
2023-05-19T19:33:25.833Z,99.10
2023-05-19T19:35:53.174Z,98.60
2023-05-19T19:38:20.553Z,98.00
2023-05-19T19:40:47.782Z,97.60
2023-05-19T19:43:14.968Z,97.10
2023-05-19T19:45:42.473Z,96.70
2023-05-19T19:48:09.753Z,96.40
2023-05-19T19:50:37.181Z,95.90
2023-05-19T19:53:04.391Z,95.60
2023-05-19T19:55:33.939Z,95.20
2023-05-19T19:58:01.552Z,94.90
2023-05-19T20:00:29.074Z,94.60
2023-05-19T20:03:05.183Z,94.40
2023-05-19T20:05:33.332Z,94.10
2023-05-19T20:08:00.648Z,94.00
2023-05-19T20:10:28.146Z,93.80
2023-05-19T20:12:55.293Z,93.60
2023-05-19T20:15:23.901Z,93.30
2023-05-19T20:17:51.252Z,93.20
2023-05-19T20:20:18.542Z,93.10
2023-05-19T20:22:46.229Z,93.00
2023-05-19T20:25:13.339Z,92.90
2023-05-19T20:27:40.725Z,92.90
2023-05-19T20:30:08.611Z,92.70
2023-05-19T20:32:36.635Z,92.50
2023-05-19T20:35:04.073Z,92.40
2023-05-19T20:37:31.450Z,92.30
2023-05-19T20:39:59.065Z,92.20
2023-05-19T20:42:27.004Z,92.20
2023-05-19T20:44:54.320Z,92.10
2023-05-19T20:47:22.021Z,92.10
2023-05-19T20:49:50.057Z,92.10
2023-05-19T20:52:18.021Z,92.20
2023-05-19T20:54:46.623Z,92.20
2023-05-19T20:57:14.552Z,92.10
2023-05-19T20:59:41.827Z,92.10
2023-05-19T21:02:09.716Z,92.10
2023-05-19T21:04:38.041Z,92.20
2023-05-19T21:07:05.940Z,92.10
2023-05-19T21:09:33.514Z,92.20
2023-05-19T21:12:01.290Z,92.20
2023-05-19T21:14:28.960Z,92.10
2023-05-19T21:16:56.946Z,92.20
2023-05-19T21:19:24.765Z,92.10
2023-05-19T21:21:52.030Z,92.10
2023-05-19T21:24:19.312Z,92.10
2023-05-19T21:26:46.566Z,92.10
2023-05-19T21:29:13.807Z,92.00
2023-05-19T21:31:41.150Z,92.10
2023-05-19T21:34:08.587Z,92.10
2023-05-19T21:36:36.228Z,92.10
2023-05-19T21:39:04.740Z,92.10
2023-05-19T21:41:32.635Z,92.20
2023-05-19T21:44:00.072Z,92.10
2023-05-19T21:46:29.435Z,92.10
2023-05-19T21:48:56.793Z,92.20
2023-05-19T21:51:24.121Z,92.20
2023-05-19T21:53:51.467Z,92.30
2023-05-19T21:56:18.653Z,92.30
2023-05-19T21:58:45.845Z,92.40
2023-05-19T22:01:13.673Z,92.50
2023-05-19T22:03:41.263Z,92.50
2023-05-19T22:06:08.871Z,92.60
2023-05-19T22:08:36.300Z,92.70
2023-05-19T22:11:03.577Z,92.90
2023-05-19T22:13:32.181Z,92.90
2023-05-19T22:15:59.974Z,93.00
2023-05-19T22:18:27.429Z,93.10
2023-05-19T22:20:54.654Z,93.20
2023-05-19T22:23:21.928Z,93.30
2023-05-19T22:25:49.384Z,93.40
2023-05-19T22:28:16.659Z,93.50
2023-05-19T22:30:44.447Z,93.60
2023-05-19T22:33:12.266Z,93.70
2023-05-19T22:35:39.663Z,93.80
2023-05-19T22:38:09.659Z,93.90
2023-05-19T22:40:38.051Z,94.00
2023-05-19T22:43:05.260Z,94.10
2023-05-19T22:45:32.895Z,94.20
2023-05-19T22:48:00.550Z,94.20
2023-05-19T22:50:27.892Z,94.30
2023-05-19T22:52:55.025Z,94.40
2023-05-19T22:55:22.517Z,94.90
2023-05-19T22:57:50.232Z,94.60
2023-05-19T23:00:21.231Z,94.70
2023-05-19T23:02:48.515Z,94.70
2023-05-19T23:05:15.986Z,94.80
2023-05-19T23:07:43.383Z,94.90
2023-05-19T23:10:10.909Z,95.00
2023-05-19T23:12:38.179Z,95.10
2023-05-19T23:15:10.748Z,95.10
2023-05-19T23:17:38.546Z,95.20
2023-05-19T23:20:06.732Z,95.30
2023-05-19T23:22:34.147Z,95.40
2023-05-19T23:25:05.778Z,95.50
2023-05-19T23:27:33.563Z,95.60
2023-05-19T23:30:01.602Z,95.70
2023-05-19T23:32:28.760Z,95.80
2023-05-19T23:34:55.876Z,95.90
2023-05-19T23:37:23.121Z,95.90
2023-05-19T23:39:50.286Z,96.00
2023-05-19T23:42:17.571Z,96.10
2023-05-19T23:44:44.878Z,96.20
2023-05-19T23:47:12.235Z,96.30
2023-05-19T23:49:39.450Z,96.50
2023-05-19T23:52:06.971Z,96.50
2023-05-19T23:54:34.246Z,96.60
2023-05-19T23:57:03.169Z,96.70
2023-05-19T23:59:30.377Z,96.80
